Time;durP1;ratioP1;P1;durP2;ratioP2;P2;SDS_P1;SDS_P2;PMS_P1;PMS_P2;Temp;Humidity;BMP_temperature;BMP_pressure;BME280_temperature;BME280_humidity;BME280_pressure;Samples;Min_cycle;Max_cycle;Signal;HPM_P1;HPM_P2
2023/07/28 00:00:10;;;;;;;;;;;;;;;18.14;100.00;97292.97;5045977;28;19952;-69
2023/07/28 00:02:36;;;;;;;;;;;;;;;18.46;100.00;97285.28;5043927;28;19926;-69
2023/07/28 00:05:03;;;;;;;;;;;;;;;18.07;100.00;97284.56;5024208;28;20000;-69
2023/07/28 00:07:29;;;;;;;;;;;;;;;17.79;100.00;97292.31;5042250;28;19932;-73
2023/07/28 00:09:55;;;;;;;;;;;;;;;17.78;100.00;97277.25;5044868;28;19953;-69
2023/07/28 00:12:24;;;;;;;;;;;;;;;17.82;100.00;97288.22;5044730;28;19999;-69
2023/07/28 00:14:51;;;;;;;;;;;;;;;17.88;100.00;97286.13;5033199;28;20078;-70
2023/07/28 00:17:18;;;;;;;;;;;;;;;18.03;100.00;97282.84;5045147;28;19936;-70
2023/07/28 00:19:45;;;;;;;;;;;;;;;17.86;100.00;97294.53;5043980;28;19936;-70
2023/07/28 00:22:11;;;;;;;;;;;;;;;17.96;100.00;97294.16;5044505;28;19975;-70
2023/07/28 00:24:38;;;;;;;;;;;;;;;18.08;100.00;97296.97;5041725;28;19932;-70
2023/07/28 00:27:04;;;;;;;;;;;;;;;18.28;100.00;97290.81;5041005;28;19929;-70
2023/07/28 00:29:31;;;;;;;;;;;;;;;18.42;100.00;97301.38;5041929;28;19961;-70
2023/07/28 00:31:57;;;;;;;;;;;;;;;18.41;100.00;97289.00;5044481;28;19992;-70
2023/07/28 00:34:25;;;;;;;;;;;;;;;18.11;100.00;97293.63;5044343;28;19952;-69
2023/07/28 00:36:51;;;;;;;;;;;;;;;18.07;100.00;97289.19;5033036;28;19971;-69
2023/07/28 00:39:18;;;;;;;;;;;;;;;18.23;100.00;97292.91;5032605;28;19932;-69
2023/07/28 00:41:46;;;;;;;;;;;;;;;18.42;100.00;97287.84;5032478;28;19925;-69
2023/07/28 00:44:14;;;;;;;;;;;;;;;18.29;100.00;97286.19;5032855;28;19933;-69
2023/07/28 00:46:41;;;;;;;;;;;;;;;18.52;100.00;97284.00;5043467;28;20070;-69
2023/07/28 00:49:07;;;;;;;;;;;;;;;18.54;100.00;97287.16;5041005;28;19932;-69
2023/07/28 00:51:36;;;;;;;;;;;;;;;18.43;100.00;97280.53;5041974;28;19993;-69
2023/07/28 00:54:04;;;;;;;;;;;;;;;18.38;100.00;97286.16;5044293;28;19967;-69
2023/07/28 00:56:30;;;;;;;;;;;;;;;18.40;100.00;97281.19;5043581;28;20456;-69
2023/07/28 00:58:56;;;;;;;;;;;;;;;18.37;100.00;97271.84;5040721;28;19956;-69
2023/07/28 01:01:23;;;;;;;;;;;;;;;18.04;100.00;97274.41;5040545;28;20020;-69
2023/07/28 01:03:50;;;;;;;;;;;;;;;17.78;100.00;97266.47;5026151;28;20045;-69
2023/07/28 01:06:21;;;;;;;;;;;;;;;17.76;100.00;97268.66;5043840;28;19993;-69
2023/07/28 01:08:50;;;;;;;;;;;;;;;17.70;100.00;97267.25;5040599;28;19932;-69
2023/07/28 01:11:16;;;;;;;;;;;;;;;17.83;100.00;97262.75;5040457;28;20040;-69
2023/07/28 01:13:43;;;;;;;;;;;;;;;17.78;100.00;97268.34;5042606;28;19964;-69
2023/07/28 01:16:09;;;;;;;;;;;;;;;17.83;100.00;97261.97;5047297;28;19931;-68
2023/07/28 01:18:36;;;;;;;;;;;;;;;17.77;100.00;97264.06;5041685;28;19925;-68
2023/07/28 01:21:04;;;;;;;;;;;;;;;17.62;100.00;97261.91;5040220;28;19926;-68
2023/07/28 01:23:38;;;;;;;;;;;;;;;17.58;100.00;97250.97;5040857;28;19998;-68
2023/07/28 01:26:08;;;;;;;;;;;;;;;17.55;100.00;97248.09;5043698;28;20064;-69
2023/07/28 01:28:36;;;;;;;;;;;;;;;17.53;100.00;97253.03;5024595;28;19964;-69
2023/07/28 01:31:03;;;;;;;;;;;;;;;17.66;100.00;97262.84;5040164;28;20040;-69
2023/07/28 01:33:29;;;;;;;;;;;;;;;17.65;100.00;97253.97;5022855;28;19964;-68
2023/07/28 01:35:56;;;;;;;;;;;;;;;17.55;100.00;97256.22;5043392;28;19925;-70
2023/07/28 01:38:22;;;;;;;;;;;;;;;17.60;100.00;97256.03;5043375;28;19925;-70
2023/07/28 01:40:49;;;;;;;;;;;;;;;17.66;100.00;97246.66;5040076;28;19929;-70
2023/07/28 01:43:15;;;;;;;;;;;;;;;17.60;100.00;97237.94;5022360;28;19936;-69
2023/07/28 01:45:43;;;;;;;;;;;;;;;17.55;100.00;97237.31;5045876;28;19936;-69
2023/07/28 01:48:10;;;;;;;;;;;;;;;17.55;100.00;97245.41;5043281;28;19925;-69
2023/07/28 01:50:36;;;;;;;;;;;;;;;17.66;100.00;97246.66;5041819;28;19936;-69
2023/07/28 01:53:03;;;;;;;;;;;;;;;17.62;100.00;97238.41;5039789;28;20403;-68
2023/07/28 01:55:29;;;;;;;;;;;;;;;17.63;100.00;97241.91;5040205;28;19926;-69
2023/07/28 01:57:57;;;;;;;;;;;;;;;17.48;100.00;97234.31;5042926;28;19925;-68
2023/07/28 02:00:23;;;;;;;;;;;;;;;17.33;100.00;97232.91;5042917;28;19925;-69
2023/07/28 02:02:51;;;;;;;;;;;;;;;17.35;100.00;97235.31;5039549;28;19960;-69
2023/07/28 02:05:17;;;;;;;;;;;;;;;17.40;100.00;97254.00;5021573;28;20020;-69
2023/07/28 02:07:44;;;;;;;;;;;;;;;17.45;100.00;97243.06;5042023;28;19932;-68
2023/07/28 02:10:11;;;;;;;;;;;;;;;17.54;100.00;97254.63;5042826;28;19932;-68
2023/07/28 02:12:37;;;;;;;;;;;;;;;17.68;100.00;97239.81;5041033;28;20288;-68
2023/07/28 02:15:04;;;;;;;;;;;;;;;17.67;100.00;97240.91;5039966;28;19933;-69
2023/07/28 02:17:30;;;;;;;;;;;;;;;17.88;100.00;97242.91;5042665;28;19925;-69
2023/07/28 02:19:58;;;;;;;;;;;;;;;18.11;100.00;97241.47;5042480;28;19925;-69
2023/07/28 02:22:26;;;;;;;;;;;;;;;18.17;100.00;97242.88;5041385;28;19971;-69
2023/07/28 02:24:53;;;;;;;;;;;;;;;18.21;100.00;97238.41;5030979;28;19944;-69
2023/07/28 02:27:19;;;;;;;;;;;;;;;18.01;100.00;97237.25;5030783;28;20005;-69
2023/07/28 02:29:46;;;;;;;;;;;;;;;17.77;100.00;97237.84;5030050;28;19929;-69
2023/07/28 02:32:12;;;;;;;;;;;;;;;17.79;100.00;97249.13;5030682;28;19929;-69
2023/07/28 02:34:38;;;;;;;;;;;;;;;17.60;100.00;97239.84;5030778;28;19972;-69
2023/07/28 02:37:06;;;;;;;;;;;;;;;17.60;100.00;97237.16;5030776;28;19925;-69
2023/07/28 02:39:32;;;;;;;;;;;;;;;17.50;100.00;97234.78;5030542;28;19989;-69
2023/07/28 02:41:59;;;;;;;;;;;;;;;17.30;100.00;97232.78;5030651;28;20020;-69
2023/07/28 02:44:25;;;;;;;;;;;;;;;17.39;100.00;97241.66;5030735;28;19960;-68
2023/07/28 02:46:52;;;;;;;;;;;;;;;17.29;100.00;97237.38;5042723;28;19989;-69
2023/07/28 02:49:18;;;;;;;;;;;;;;;17.42;100.00;97230.22;5039001;28;19926;-69
2023/07/28 02:51:45;;;;;;;;;;;;;;;17.41;100.00;97237.50;5041529;28;19957;-69
2023/07/28 02:54:12;;;;;;;;;;;;;;;17.31;100.00;97239.75;5042096;28;19984;-69
2023/07/28 02:56:39;;;;;;;;;;;;;;;17.19;100.00;97233.13;5040414;28;19957;-69
2023/07/28 02:59:05;;;;;;;;;;;;;;;17.20;100.00;97234.72;5038896;28;19932;-69
2023/07/28 03:01:33;;;;;;;;;;;;;;;17.34;100.00;97239.09;5039422;28;19926;-69
2023/07/28 03:03:59;;;;;;;;;;;;;;;17.41;100.00;97245.59;5042207;28;19925;-69
2023/07/28 03:06:28;;;;;;;;;;;;;;;17.32;100.00;97225.94;5024337;28;19980;-70
2023/07/28 03:08:55;;;;;;;;;;;;;;;17.40;100.00;97237.81;5038798;28;19957;-68
2023/07/28 03:11:22;;;;;;;;;;;;;;;17.46;100.00;97240.03;5038651;28;19967;-69
2023/07/28 03:13:49;;;;;;;;;;;;;;;17.40;100.00;97238.59;5041745;28;19926;-69
2023/07/28 03:16:15;;;;;;;;;;;;;;;17.51;100.00;97241.75;5046025;28;19926;-69
2023/07/28 03:18:41;;;;;;;;;;;;;;;17.72;100.00;97239.94;5039853;28;19957;-69
2023/07/28 03:21:09;;;;;;;;;;;;;;;17.56;100.00;97239.69;5038499;28;19925;-69
2023/07/28 03:23:35;;;;;;;;;;;;;;;17.57;100.00;97233.19;5039920;28;19926;-69
2023/07/28 03:26:02;;;;;;;;;;;;;;;17.61;100.00;97231.41;5041941;28;19925;-68
2023/07/28 03:28:30;;;;;;;;;;;;;;;17.67;100.00;97240.16;5041681;28;19931;-68
2023/07/28 03:30:56;;;;;;;;;;;;;;;17.78;100.00;97239.44;5038323;28;19961;-68
2023/07/28 03:33:22;;;;;;;;;;;;;;;17.54;100.00;97233.81;5038490;28;19929;-68
2023/07/28 03:35:49;;;;;;;;;;;;;;;17.54;100.00;97238.41;5041676;28;20039;-68
2023/07/28 03:38:15;;;;;;;;;;;;;;;17.59;100.00;97240.97;5041845;28;19952;-68
2023/07/28 03:40:43;;;;;;;;;;;;;;;17.65;100.00;97231.56;5041241;28;19925;-68
2023/07/28 03:43:10;;;;;;;;;;;;;;;17.57;100.00;97232.41;5041876;28;19944;-69
2023/07/28 03:45:37;;;;;;;;;;;;;;;17.91;100.00;97229.53;5029501;28;19949;-68
2023/07/28 03:48:04;;;;;;;;;;;;;;;17.99;100.00;97231.38;5045197;28;19992;-68
2023/07/28 03:50:30;;;;;;;;;;;;;;;17.86;100.00;97223.53;5044476;28;19925;-68
2023/07/28 03:52:57;;;;;;;;;;;;;;;17.95;100.00;97216.94;5041683;28;19926;-68
2023/07/28 03:55:23;;;;;;;;;;;;;;;17.91;100.00;97232.22;5041922;28;19968;-68
2023/07/28 03:57:49;;;;;;;;;;;;;;;17.77;100.00;97228.97;5045003;28;19932;-69
2023/07/28 04:00:16;;;;;;;;;;;;;;;17.50;100.00;97234.78;5044919;28;19925;-69
2023/07/28 04:02:44;;;;;;;;;;;;;;;17.61;100.00;97244.91;5042504;28;19936;-69
2023/07/28 04:05:10;;;;;;;;;;;;;;;17.89;100.00;97234.44;5023992;28;19968;-69
2023/07/28 04:07:36;;;;;;;;;;;;;;;17.83;100.00;97229.56;5042954;28;19949;-69
2023/07/28 04:10:03;;;;;;;;;;;;;;;17.91;100.00;97237.63;5045135;28;19929;-69
2023/07/28 04:12:29;;;;;;;;;;;;;;;18.13;100.00;97233.84;5044466;28;19926;-69
2023/07/28 04:14:56;;;;;;;;;;;;;;;18.15;100.00;97240.50;5042224;28;19925;-69
2023/07/28 04:17:22;;;;;;;;;;;;;;;17.85;100.00;97235.44;5042301;28;19996;-69
2023/07/28 04:19:50;;;;;;;;;;;;;;;18.17;100.00;97240.97;5045179;28;19988;-68
2023/07/28 04:22:21;;;;;;;;;;;;;;;18.32;100.00;97236.88;5045470;28;19997;-68
2023/07/28 04:24:47;;;;;;;;;;;;;;;18.39;100.00;97239.06;5042077;28;19926;-68
2023/07/28 04:27:14;;;;;;;;;;;;;;;18.16;100.00;97238.59;5023719;28;19969;-68
2023/07/28 04:29:40;;;;;;;;;;;;;;;18.18;100.00;97236.34;5043167;28;19925;-69
2023/07/28 04:32:07;;;;;;;;;;;;;;;17.86;100.00;97240.50;5027188;28;19936;-68
2023/07/28 04:34:33;;;;;;;;;;;;;;;18.09;100.00;97252.63;5043570;28;19932;-68
2023/07/28 04:37:01;;;;;;;;;;;;;;;18.26;100.00;97241.69;5040993;28;19925;-69
2023/07/28 04:39:27;;;;;;;;;;;;;;;18.35;100.00;97245.13;5041599;28;19925;-69
2023/07/28 04:41:54;;;;;;;;;;;;;;;18.44;100.00;97244.28;5045277;28;19936;-68
2023/07/28 04:44:20;;;;;;;;;;;;;;;18.57;100.00;97244.03;5045521;28;19925;-69
2023/07/28 04:46:47;;;;;;;;;;;;;;;18.74;100.00;97243.13;5046198;28;19933;-69
2023/07/28 04:49:13;;;;;;;;;;;;;;;18.38;100.00;97234.78;5041695;28;19926;-69
2023/07/28 04:51:40;;;;;;;;;;;;;;;18.53;100.00;97236.94;5042643;28;19932;-68
2023/07/28 04:54:07;;;;;;;;;;;;;;;18.60;100.00;97240.69;5044917;28;19959;-69
2023/07/28 04:56:34;;;;;;;;;;;;;;;18.71;100.00;97239.16;5042963;28;19992;-69
2023/07/28 04:59:00;;;;;;;;;;;;;;;18.42;100.00;97238.41;5040672;28;19951;-69
2023/07/28 05:01:27;;;;;;;;;;;;;;;18.49;100.00;97236.78;5040469;28;19926;-69
2023/07/28 05:03:53;;;;;;;;;;;;;;;18.11;100.00;97231.47;5043923;28;20371;-70
2023/07/28 05:06:19;;;;;;;;;;;;;;;18.03;100.00;97240.44;5044161;28;19963;-69
2023/07/28 05:08:46;;;;;;;;;;;;;;;17.88;100.00;97248.31;5041067;28;20001;-68
2023/07/28 05:11:13;;;;;;;;;;;;;;;17.66;100.00;97249.34;5040270;28;19921;-69
2023/07/28 05:13:40;;;;;;;;;;;;;;;17.78;100.00;97244.84;5042159;28;20016;-69
2023/07/28 05:16:06;;;;;;;;;;;;;;;17.93;100.00;97254.31;5047607;28;19960;-69
2023/07/28 05:18:32;;;;;;;;;;;;;;;18.12;100.00;97254.66;5042702;28;19971;-69
2023/07/28 05:20:59;;;;;;;;;;;;;;;18.16;100.00;97261.03;5040061;28;19992;-69
2023/07/28 05:23:25;;;;;;;;;;;;;;;18.06;100.00;97260.59;5040130;28;19968;-69
2023/07/28 05:25:51;;;;;;;;;;;;;;;18.21;100.00;97262.72;5032041;28;19936;-69
2023/07/28 05:28:19;;;;;;;;;;;;;;;18.24;100.00;97268.25;5031846;28;19932;-69
2023/07/28 05:30:45;;;;;;;;;;;;;;;18.12;100.00;97270.09;5031749;28;19929;-69
2023/07/28 05:33:12;;;;;;;;;;;;;;;18.22;100.00;97281.31;5014455;28;19925;-69
2023/07/28 05:35:38;;;;;;;;;;;;;;;18.17;100.00;97267.97;5031605;28;19948;-69
2023/07/28 05:38:06;;;;;;;;;;;;;;;18.09;100.00;97268.84;5031812;28;19949;-69
2023/07/28 05:40:32;;;;;;;;;;;;;;;17.94;100.00;97276.72;5031425;28;19936;-69
2023/07/28 05:42:58;;;;;;;;;;;;;;;17.86;100.00;97285.66;5031636;28;19971;-69
2023/07/28 05:45:26;;;;;;;;;;;;;;;17.67;100.00;97276.00;5035392;28;19925;-69
2023/07/28 05:47:52;;;;;;;;;;;;;;;17.70;100.00;97271.91;5031399;28;19957;-69
2023/07/28 05:50:19;;;;;;;;;;;;;;;17.67;100.00;97275.25;5031296;28;19960;-69
2023/07/28 05:52:45;;;;;;;;;;;;;;;17.67;100.00;97267.16;5031405;28;19997;-69
2023/07/28 05:55:13;;;;;;;;;;;;;;;17.83;100.00;97270.06;5031406;28;19969;-70
2023/07/28 05:57:39;;;;;;;;;;;;;;;18.00;100.00;97281.59;5021873;28;19926;-70
2023/07/28 06:00:09;;;;;;;;;;;;;;;18.03;100.00;97277.47;5031205;28;19960;-70
2023/07/28 06:02:37;;;;;;;;;;;;;;;17.95;100.00;97286.41;5038343;28;19929;-69
2023/07/28 06:05:03;;;;;;;;;;;;;;;17.91;100.00;97275.47;5039313;28;19968;-69
2023/07/28 06:07:29;;;;;;;;;;;;;;;17.94;100.00;97282.13;5039692;28;19961;-69
2023/07/28 06:09:56;;;;;;;;;;;;;;;17.90;100.00;97281.97;5042747;28;19975;-69
2023/07/28 06:12:22;;;;;;;;;;;;;;;17.98;100.00;97283.81;5024932;28;19925;-69
2023/07/28 06:14:49;;;;;;;;;;;;;;;17.97;100.00;97290.34;5039428;28;19952;-69
2023/07/28 06:17:15;;;;;;;;;;;;;;;17.92;100.00;97287.81;5043119;28;20375;-69
2023/07/28 06:19:43;;;;;;;;;;;;;;;17.88;100.00;97275.31;5041264;28;19925;-70
2023/07/28 06:22:09;;;;;;;;;;;;;;;17.82;100.00;97285.50;5042440;28;19972;-70
2023/07/28 06:24:36;;;;;;;;;;;;;;;17.92;100.00;97279.72;5041082;28;19956;-69
2023/07/28 06:27:07;;;;;;;;;;;;;;;18.08;100.00;97291.56;5038986;28;19988;-69
2023/07/28 06:29:33;;;;;;;;;;;;;;;18.23;100.00;97298.31;5039953;28;19925;-69
2023/07/28 06:31:59;;;;;;;;;;;;;;;18.33;100.00;97301.44;5042374;28;19989;-69
2023/07/28 06:34:26;;;;;;;;;;;;;;;18.51;100.00;97298.63;5042491;28;20363;-69
2023/07/28 06:36:53;;;;;;;;;;;;;;;18.75;100.00;97296.09;5038828;28;19925;-69
2023/07/28 06:39:20;;;;;;;;;;;;;;;18.88;100.00;97308.53;5038899;28;19933;-69
2023/07/28 06:41:46;;;;;;;;;;;;;;;19.01;100.00;97307.47;5041435;28;19961;-69
2023/07/28 06:44:13;;;;;;;;;;;;;;;19.09;100.00;97309.34;5042204;28;19921;-69
2023/07/28 06:46:39;;;;;;;;;;;;;;;19.13;100.00;97326.47;5044388;28;19925;-69
2023/07/28 06:49:05;;;;;;;;;;;;;;;19.18;100.00;97322.78;5038917;28;19925;-69
2023/07/28 06:51:32;;;;;;;;;;;;;;;19.22;100.00;97315.56;5039548;28;19925;-69
2023/07/28 06:53:59;;;;;;;;;;;;;;;19.17;100.00;97311.16;5042319;28;19925;-69
2023/07/28 06:56:26;;;;;;;;;;;;;;;19.22;100.00;97318.28;5042219;28;19929;-69
2023/07/28 06:58:52;;;;;;;;;;;;;;;19.29;100.00;97322.03;5038822;28;19926;-69
2023/07/28 07:01:19;;;;;;;;;;;;;;;19.42;100.00;97316.69;5038643;28;19926;-70
2023/07/28 07:03:45;;;;;;;;;;;;;;;19.47;100.00;97317.25;5041339;28;19938;-70
2023/07/28 07:06:12;;;;;;;;;;;;;;;19.45;100.00;97306.00;5042293;28;19948;-70
2023/07/28 07:08:38;;;;;;;;;;;;;;;19.51;100.00;97303.84;5022918;28;19948;-70
2023/07/28 07:11:06;;;;;;;;;;;;;;;19.49;100.00;97300.69;5038815;28;19926;-69
2023/07/28 07:13:32;;;;;;;;;;;;;;;19.47;100.00;97309.13;5039556;28;19932;-69
2023/07/28 07:15:59;;;;;;;;;;;;;;;19.48;100.00;97304.53;5048659;28;19925;-69
2023/07/28 07:18:25;;;;;;;;;;;;;;;19.47;100.00;97308.34;5046122;28;19925;-69
2023/07/28 07:20:51;;;;;;;;;;;;;;;19.44;100.00;97312.53;5016804;28;19926;-69
2023/07/28 07:23:18;;;;;;;;;;;;;;;19.39;100.00;97299.16;5034384;28;19926;-70
2023/07/28 07:25:44;;;;;;;;;;;;;;;19.45;100.00;97288.94;5034196;28;19960;-70
2023/07/28 07:28:12;;;;;;;;;;;;;;;19.40;100.00;97293.44;5034204;28;19936;-70
2023/07/28 07:30:39;;;;;;;;;;;;;;;19.58;100.00;97306.81;5034045;28;19925;-70
2023/07/28 07:33:06;;;;;;;;;;;;;;;19.61;100.00;97308.84;5034082;28;19926;-70
2023/07/28 07:35:36;;;;;;;;;;;;;;;19.48;100.00;97304.53;5032696;28;19980;-70
2023/07/28 07:38:02;;;;;;;;;;;;;;;19.51;100.00;97320.91;5024567;28;19925;-70
2023/07/28 07:40:29;;;;;;;;;;;;;;;19.50;100.00;97310.38;5042540;28;19963;-69
2023/07/28 07:42:56;;;;;;;;;;;;;;;19.46;100.00;97317.63;5045632;28;19960;-70
2023/07/28 07:45:23;;;;;;;;;;;;;;;19.50;100.00;97310.38;5045329;28;19931;-69
2023/07/28 07:47:50;;;;;;;;;;;;;;;19.46;100.00;97309.50;5045586;28;19961;-70
2023/07/28 07:50:16;;;;;;;;;;;;;;;19.73;100.00;97327.81;5045407;28;19929;-70
2023/07/28 07:52:42;;;;;;;;;;;;;;;19.80;100.00;97328.06;5043034;28;20008;-70
2023/07/28 07:55:10;;;;;;;;;;;;;;;19.64;100.00;97325.22;5041794;28;19960;-71
2023/07/28 07:57:36;;;;;;;;;;;;;;;20.06;100.00;97320.41;5043040;28;19929;-70
2023/07/28 08:00:03;;;;;;;;;;;;;;;20.12;100.00;97313.63;5027293;28;19931;-70
2023/07/28 08:02:31;;;;;;;;;;;;;;;20.08;100.00;97312.75;5044534;28;19952;-70
2023/07/28 08:04:57;;;;;;;;;;;;;;;20.02;100.00;97316.00;5041579;28;20008;-71
2023/07/28 08:07:24;;;;;;;;;;;;;;;20.09;100.00;97316.22;5041650;28;19967;-69
2023/07/28 08:09:50;;;;;;;;;;;;;;;20.26;100.00;97318.75;5044720;28;20001;-69
2023/07/28 08:12:17;;;;;;;;;;;;;;;20.45;100.00;97322.47;5044839;28;19929;-69
2023/07/28 08:14:43;;;;;;;;;;;;;;;20.62;100.00;97326.84;5042284;28;19925;-70
2023/07/28 08:17:10;;;;;;;;;;;;;;;20.50;100.00;97316.00;5045603;28;19976;-70
2023/07/28 08:19:38;;;;;;;;;;;;;;;20.59;100.00;97321.31;5042900;28;19929;-71
2023/07/28 08:22:04;;;;;;;;;;;;;;;20.51;100.00;97317.59;5044942;28;19968;-73
2023/07/28 08:24:33;;;;;;;;;;;;;;;20.59;100.00;97318.59;5044094;28;19936;-70
2023/07/28 08:26:59;;;;;;;;;;;;;;;20.49;100.00;97317.13;5022510;28;19972;-70
2023/07/28 08:29:26;;;;;;;;;;;;;;;20.44;100.00;97337.16;5023809;28;19926;-71
2023/07/28 08:31:53;;;;;;;;;;;;;;;20.55;100.00;97342.91;5033027;28;19926;-70
2023/07/28 08:34:19;;;;;;;;;;;;;;;20.53;100.00;97338.94;5032954;28;19945;-70
2023/07/28 08:36:47;;;;;;;;;;;;;;;20.78;100.00;97348.63;5032987;28;19976;-70
2023/07/28 08:39:15;;;;;;;;;;;;;;;20.79;100.00;97351.03;5015848;28;19932;-70
2023/07/28 08:41:42;;;;;;;;;;;;;;;20.85;100.00;97344.22;5032993;28;19932;-71
2023/07/28 08:44:08;;;;;;;;;;;;;;;20.57;100.00;97356.13;5015410;28;19933;-70
2023/07/28 08:46:35;;;;;;;;;;;;;;;20.43;100.00;97356.47;5045046;28;19932;-70
2023/07/28 08:49:01;;;;;;;;;;;;;;;20.50;100.00;97366.75;5041352;28;19925;-70
2023/07/28 08:51:28;;;;;;;;;;;;;;;20.45;100.00;97363.16;5041402;28;19926;-71
2023/07/28 08:53:56;;;;;;;;;;;;;;;20.42;100.00;97360.34;5044187;28;19947;-71
2023/07/28 08:56:23;;;;;;;;;;;;;;;20.44;100.00;97363.50;5044153;28;19949;-70
2023/07/28 08:58:50;;;;;;;;;;;;;;;20.66;100.00;97367.66;5041092;28;20422;-70
2023/07/28 09:01:16;;;;;;;;;;;;;;;20.70;100.00;97365.84;5040656;28;20010;-71
2023/07/28 09:03:43;;;;;;;;;;;;;;;20.49;100.00;97370.63;5043020;28;19925;-71
2023/07/28 09:06:09;;;;;;;;;;;;;;;20.61;100.00;97368.66;5044338;28;19925;-71
2023/07/28 09:08:36;;;;;;;;;;;;;;;20.50;100.00;97378.41;5042832;28;19960;-70
2023/07/28 09:11:05;;;;;;;;;;;;;;;20.42;100.00;97374.66;5040721;28;19926;-70
2023/07/28 09:13:36;;;;;;;;;;;;;;;20.59;100.00;97376.38;5023655;28;19926;-70
2023/07/28 09:16:03;;;;;;;;;;;;;;;20.51;100.00;97385.41;5047851;28;20003;-71
2023/07/28 09:18:30;;;;;;;;;;;;;;;20.45;100.00;97384.06;5043508;28;19932;-71
2023/07/28 09:20:56;;;;;;;;;;;;;;;20.60;100.00;97386.09;5040346;28;19926;-71
2023/07/28 09:23:28;;;;;;;;;;;;;;;20.52;100.00;97386.97;5040383;28;19936;-71
2023/07/28 09:25:59;;;;;;;;;;;;;;;20.44;100.00;97382.47;5032537;28;19961;-71
2023/07/28 09:28:36;;;;;;;;;;;;;;;20.55;100.00;97394.44;5032360;28;19925;-70
2023/07/28 09:31:04;;;;;;;;;;;;;;;20.52;100.00;97386.22;5031873;28;19984;-70
2023/07/28 09:33:31;;;;;;;;;;;;;;;20.72;100.00;97399.66;5022889;28;19925;-70
2023/07/28 09:35:58;;;;;;;;;;;;;;;20.68;100.00;97395.22;5043469;28;19989;-70
2023/07/28 09:38:28;;;;;;;;;;;;;;;20.54;100.00;97389.38;5025501;28;19932;-70
2023/07/28 09:40:55;;;;;;;;;;;;;;;20.67;100.00;97388.25;5039824;28;19925;-72
2023/07/28 09:43:21;;;;;;;;;;;;;;;20.65;100.00;97401.34;5040094;28;19997;-72
2023/07/28 09:45:49;;;;;;;;;;;;;;;20.62;100.00;97399.31;5046985;28;19971;-73
2023/07/28 09:48:16;;;;;;;;;;;;;;;20.57;100.00;97402.25;5043240;28;19971;-73
2023/07/28 09:50:44;;;;;;;;;;;;;;;20.52;100.00;97397.06;5040825;28;19964;-72
2023/07/28 09:53:11;;;;;;;;;;;;;;;20.61;100.00;97400.44;5039732;28;19989;-73
2023/07/28 09:55:39;;;;;;;;;;;;;;;20.62;100.00;97400.09;5041241;28;19952;-70
2023/07/28 09:58:07;;;;;;;;;;;;;;;20.73;100.00;97414.00;5042866;28;19932;-70
2023/07/28 10:00:34;;;;;;;;;;;;;;;20.63;100.00;97423.41;5042014;28;19968;-71
2023/07/28 10:03:02;;;;;;;;;;;;;;;20.76;100.00;97389.69;5039282;28;19932;-70
2023/07/28 10:05:29;;;;;;;;;;;;;;;20.59;100.00;97399.97;5021967;28;19925;-70
2023/07/28 10:07:55;;;;;;;;;;;;;;;20.70;100.00;97401.13;5042821;28;19936;-70
2023/07/28 10:10:22;;;;;;;;;;;;;;;20.73;100.00;97406.66;5042626;28;19961;-70
2023/07/28 10:12:49;;;;;;;;;;;;;;;20.80;100.00;97397.94;5039760;28;19968;-71
2023/07/28 10:15:16;;;;;;;;;;;;;;;20.79;100.00;97401.78;5041700;28;19981;-71
2023/07/28 10:17:48;;;;;;;;;;;;;;;20.99;100.00;97390.78;5042526;28;19925;-71
2023/07/28 10:20:35;;;;;;;;;;;;;;;20.96;100.00;97393.38;5041377;28;19925;-69
2023/07/28 10:23:06;;;;;;;;;;;;;;;20.98;100.00;97396.56;5037789;28;19987;-70
2023/07/28 10:25:34;;;;;;;;;;;;;;;21.31;100.00;97390.94;5039761;28;19989;-69
2023/07/28 10:28:00;;;;;;;;;;;;;;;21.52;100.00;97395.06;5042306;28;19925;-70
2023/07/28 10:30:26;;;;;;;;;;;;;;;21.25;100.00;97395.03;5042188;28;19964;-70
2023/07/28 10:32:55;;;;;;;;;;;;;;;21.37;100.00;97384.13;5038812;28;19960;-70
2023/07/28 10:35:26;;;;;;;;;;;;;;;21.54;100.00;97389.25;5038862;28;19925;-70
2023/07/28 10:37:56;;;;;;;;;;;;;;;21.60;100.00;97384.38;5030629;28;19960;-70
2023/07/28 10:40:23;;;;;;;;;;;;;;;21.69;100.00;97385.03;5030874;28;19925;-70
2023/07/28 10:42:50;;;;;;;;;;;;;;;21.56;100.00;97388.94;5030571;28;20391;-69
2023/07/28 10:45:17;;;;;;;;;;;;;;;21.45;100.00;97391.34;5033394;28;19940;-70
2023/07/28 10:47:43;;;;;;;;;;;;;;;21.77;100.00;97390.28;5024651;28;20056;-72
2023/07/28 10:50:10;;;;;;;;;;;;;;;21.97;100.00;97385.81;5026000;28;19996;-71
2023/07/28 10:52:40;;;;;;;;;;;;;;;22.03;100.00;97390.59;5045223;28;19925;-71
2023/07/28 10:55:12;;;;;;;;;;;;;;;21.45;100.00;97388.63;5042988;28;19949;-70
2023/07/28 10:57:38;;;;;;;;;;;;;;;21.88;100.00;97382.44;5044335;28;19925;-70
2023/07/28 11:00:05;;;;;;;;;;;;;;;21.84;100.00;97382.34;5046121;28;19979;-70
2023/07/28 11:02:32;;;;;;;;;;;;;;;21.89;100.00;97384.81;5045494;28;19944;-70
2023/07/28 11:04:59;;;;;;;;;;;;;;;21.87;100.00;97387.06;5044112;28;19929;-69
2023/07/28 11:07:27;;;;;;;;;;;;;;;21.73;100.00;97385.88;5025554;28;19925;-70
2023/07/28 11:09:54;;;;;;;;;;;;;;;21.75;100.00;97379.00;5041926;28;19973;-70
2023/07/28 11:12:21;;;;;;;;;;;;;;;21.38;100.00;97381.09;5025122;28;19997;-70
2023/07/28 11:14:48;;;;;;;;;;;;;;;21.38;100.00;97383.81;5045392;28;19931;-70
2023/07/28 11:17:15;;;;;;;;;;;;;;;21.87;100.00;97380.84;5047657;28;20035;-70
2023/07/28 11:19:41;;;;;;;;;;;;;;;22.09;100.00;97383.00;5043670;28;19925;-70
2023/07/28 11:22:08;;;;;;;;;;;;;;;22.28;100.00;97385.78;5028459;28;19924;-70
2023/07/28 11:24:34;;;;;;;;;;;;;;;22.24;100.00;97384.94;5044873;28;19925;-71
2023/07/28 11:27:02;;;;;;;;;;;;;;;21.91;100.00;97392.63;5024803;28;19964;-71
2023/07/28 11:29:31;;;;;;;;;;;;;;;22.05;100.00;97382.13;5024829;28;19935;-71
2023/07/28 11:31:57;;;;;;;;;;;;;;;21.74;100.00;97376.59;5045767;28;19989;-70
2023/07/28 11:34:24;;;;;;;;;;;;;;;21.97;100.00;97381.13;5045922;28;19925;-70
2023/07/28 11:36:51;;;;;;;;;;;;;;;22.14;100.00;97373.78;5042347;28;19956;-71
2023/07/28 11:39:17;;;;;;;;;;;;;;;22.25;100.00;97374.84;5042031;28;19925;-71
2023/07/28 11:41:44;;;;;;;;;;;;;;;21.65;100.00;97373.25;5026896;28;19926;-70
2023/07/28 11:44:11;;;;;;;;;;;;;;;21.66;100.00;97369.41;5027432;28;19933;-70
2023/07/28 11:46:40;;;;;;;;;;;;;;;21.77;100.00;97375.91;5047576;28;20533;-70
2023/07/28 11:49:10;;;;;;;;;;;;;;;21.95;100.00;97377.19;5024017;28;19925;-70
2023/07/28 11:51:43;;;;;;;;;;;;;;;21.91;100.00;97370.88;5043165;28;19956;-70
2023/07/28 11:54:11;;;;;;;;;;;;;;;22.05;100.00;97371.25;5045285;28;20313;-70
2023/07/28 11:56:37;;;;;;;;;;;;;;;21.98;100.00;97371.06;5043454;28;19989;-70
2023/07/28 11:59:04;;;;;;;;;;;;;;;22.21;100.00;97354.94;5041529;28;19925;-70
2023/07/28 12:01:30;;;;;;;;;;;;;;;22.53;100.00;97365.41;5041502;28;19960;-70
2023/07/28 12:04:00;;;;;;;;;;;;;;;22.16;100.00;97366.84;5044535;28;19925;-71
2023/07/28 12:06:26;;;;;;;;;;;;;;;22.11;100.00;97369.03;5045073;28;19979;-71
2023/07/28 12:08:53;;;;;;;;;;;;;;;22.51;100.00;97367.72;5033113;28;19936;-71
2023/07/28 12:11:23;;;;;;;;;;;;;;;22.34;100.00;97368.09;5033177;28;19956;-71
2023/07/28 12:13:50;;;;;;;;;;;;;;;22.62;100.00;97376.13;5033700;28;19929;-70
2023/07/28 12:16:32;;;;;;;;;;;;;;;22.33;100.00;97371.16;5028946;28;19925;-73
2023/07/28 12:19:00;;;;;;;;;;;;;;;22.65;100.00;97383.63;5037372;28;19936;-73
2023/07/28 12:21:26;;;;;;;;;;;;;;;22.95;100.00;97375.72;5044595;28;20078;-71
2023/07/28 12:23:52;;;;;;;;;;;;;;;23.12;100.00;97358.97;5032815;28;19964;-73
2023/07/28 12:26:19;;;;;;;;;;;;;;;22.62;100.00;97375.34;5032774;28;19974;-72
2023/07/28 12:28:46;;;;;;;;;;;;;;;22.83;100.00;97364.97;5015418;28;20368;-73
2023/07/28 12:31:12;;;;;;;;;;;;;;;23.07;100.00;97368.22;5032945;28;19925;-72
2023/07/28 12:33:38;;;;;;;;;;;;;;;23.03;100.00;97372.00;5032665;28;19925;-73